Time;durP1;ratioP1;P1;durP2;ratioP2;P2;SDS_P1;SDS_P2;PMS_P1;PMS_P2;Temp;Humidity;BMP_temperature;BMP_pressure;BME280_temperature;BME280_humidity;BME280_pressure;Samples;Min_cycle;Max_cycle;Signal;HPM_P1;HPM_P2
2023/09/07 00:01:10;;;;;;;5.53;4.77;;;;;;;;;;5040941;28;20464;-80
2023/09/07 00:03:40;;;;;;;5.20;4.77;;;;;;;;;;5039451;28;20480;-81
2023/09/07 00:06:06;;;;;;;5.60;5.10;;;;;;;;;;5036570;28;20463;-80
2023/09/07 00:08:34;;;;;;;6.10;5.07;;;;;;;;;;5040174;28;21002;-80
2023/09/07 00:11:03;;;;;;;6.93;6.30;;;;;;;;;;5041665;28;20459;-80
2023/09/07 00:13:30;;;;;;;6.00;5.50;;;;;;;;;;5057279;28;20868;-80
2023/09/07 00:15:58;;;;;;;6.23;5.73;;;;;;;;;;5037193;28;22126;-81
2023/09/07 00:18:24;;;;;;;5.90;5.40;;;;;;;;;;5012260;28;20918;-81
2023/09/07 00:20:51;;;;;;;6.33;5.27;;;;;;;;;;5019546;28;20467;-80
2023/09/07 00:23:17;;;;;;;6.50;5.90;;;;;;;;;;5045872;28;20230;-80
2023/09/07 00:25:45;;;;;;;6.17;5.60;;;;;;;;;;5044997;28;20460;-81
2023/09/07 00:28:11;;;;;;;5.70;5.20;;;;;;;;;;5042420;28;20469;-80
2023/09/07 00:30:39;;;;;;;5.90;5.40;;;;;;;;;;5052194;28;20476;-80
2023/09/07 00:33:05;;;;;;;5.63;5.03;;;;;;;;;;5045380;28;20487;-80
2023/09/07 00:35:31;;;;;;;6.57;5.60;;;;;;;;;;5047939;28;20467;-80
2023/09/07 00:37:58;;;;;;;5.57;5.07;;;;;;;;;;5048636;28;20479;-80
2023/09/07 00:40:31;;;;;;;7.60;5.20;;;;;;;;;;5016209;28;20461;-81
2023/09/07 00:42:59;;;;;;;6.47;5.30;;;;;;;;;;5029585;28;20864;-81
2023/09/07 00:45:25;;;;;;;6.10;5.60;;;;;;;;;;5035621;28;20461;-81
2023/09/07 00:47:52;;;;;;;6.03;5.53;;;;;;;;;;5021532;28;20891;-81
2023/09/07 00:50:19;;;;;;;5.73;5.13;;;;;;;;;;5026403;28;21006;-80
2023/09/07 00:52:46;;;;;;;6.37;5.77;;;;;;;;;;5041773;28;21065;-81
2023/09/07 00:55:13;;;;;;;5.50;5.00;;;;;;;;;;5041034;28;20467;-80
2023/09/07 00:57:42;;;;;;;6.30;5.70;;;;;;;;;;5038574;28;20478;-80
2023/09/07 01:00:11;;;;;;;6.00;5.50;;;;;;;;;;5045719;28;20481;-80
2023/09/07 01:02:38;;;;;;;5.57;5.07;;;;;;;;;;5036341;28;20568;-81
2023/09/07 01:05:05;;;;;;;5.73;5.13;;;;;;;;;;5040629;28;20528;-81
2023/09/07 01:07:33;;;;;;;7.47;5.70;;;;;;;;;;5042762;28;20550;-80
2023/09/07 01:10:03;;;;;;;9.10;5.77;;;;;;;;;;5023034;28;20459;-81
2023/09/07 01:12:30;;;;;;;5.87;5.40;;;;;;;;;;5039967;28;20471;-80
2023/09/07 01:14:58;;;;;;;5.67;5.17;;;;;;;;;;5038586;28;20548;-80
2023/09/07 01:17:26;;;;;;;8.90;6.57;;;;;;;;;;5036612;28;20507;-81
2023/09/07 01:19:53;;;;;;;6.53;5.93;;;;;;;;;;5045900;28;20532;-80
2023/09/07 01:22:22;;;;;;;7.30;5.30;;;;;;;;;;5040141;28;20485;-81
2023/09/07 01:24:49;;;;;;;13.33;5.27;;;;;;;;;;5040719;28;20486;-80
2023/09/07 01:27:17;;;;;;;6.30;5.70;;;;;;;;;;5036687;28;20468;-80
2023/09/07 01:29:43;;;;;;;6.30;5.70;;;;;;;;;;5041275;28;20555;-80
2023/09/07 01:32:10;;;;;;;6.10;5.63;;;;;;;;;;5050832;28;20472;-81
2023/09/07 01:34:37;;;;;;;7.73;6.10;;;;;;;;;;5043082;28;20468;-80
2023/09/07 01:37:03;;;;;;;6.40;5.80;;;;;;;;;;5014233;28;21096;-80
2023/09/07 01:39:31;;;;;;;8.73;6.80;;;;;;;;;;5019949;28;21059;-81
2023/09/07 01:41:57;;;;;;;9.67;6.23;;;;;;;;;;5024999;28;20480;-81
2023/09/07 01:44:25;;;;;;;5.67;5.27;;;;;;;;;;5049485;28;20464;-80
2023/09/07 01:46:52;;;;;;;6.83;5.70;;;;;;;;;;5043754;28;20485;-80
2023/09/07 01:49:18;;;;;;;9.43;6.13;;;;;;;;;;5038898;28;20832;-80
2023/09/07 01:51:45;;;;;;;6.43;5.83;;;;;;;;;;5041465;28;20468;-80
2023/09/07 01:54:11;;;;;;;6.70;6.00;;;;;;;;;;5046219;28;20832;-80
2023/09/07 01:56:41;;;;;;;10.37;6.60;;;;;;;;;;5050225;28;21011;-80
2023/09/07 01:59:07;;;;;;;7.00;6.30;;;;;;;;;;5034357;28;20471;-80
2023/09/07 02:01:36;;;;;;;5.80;5.27;;;;;;;;;;5052738;28;20471;-80
2023/09/07 02:04:03;;;;;;;5.53;5.00;;;;;;;;;;5047540;28;20567;-80
2023/09/07 02:06:29;;;;;;;6.30;5.73;;;;;;;;;;5037813;28;20488;-80
2023/09/07 02:08:55;;;;;;;6.80;5.60;;;;;;;;;;5040333;28;20494;-80
2023/09/07 02:11:22;;;;;;;6.70;6.10;;;;;;;;;;5047572;28;20471;-81
2023/09/07 02:13:52;;;;;;;7.10;5.60;;;;;;;;;;5045092;28;20569;-80
2023/09/07 02:16:19;;;;;;;5.63;5.03;;;;;;;;;;5043657;28;21037;-80
2023/09/07 02:18:46;;;;;;;6.87;5.53;;;;;;;;;;5029187;28;20474;-83
2023/09/07 02:21:13;;;;;;;6.47;5.97;;;;;;;;;;5041641;28;20471;-80
2023/09/07 02:23:40;;;;;;;6.83;6.23;;;;;;;;;;5043974;28;20461;-81
2023/09/07 02:26:06;;;;;;;8.07;7.40;;;;;;;;;;5043956;28;21003;-80
2023/09/07 02:28:33;;;;;;;8.53;6.37;;;;;;;;;;5044798;28;20481;-80
2023/09/07 02:31:05;;;;;;;7.80;7.00;;;;;;;;;;5039776;28;20480;-81
2023/09/07 02:33:32;;;;;;;7.20;6.60;;;;;;;;;;5048803;28;20503;-80
2023/09/07 02:35:58;;;;;;;6.70;6.10;;;;;;;;;;5052156;28;20462;-80
2023/09/07 02:38:24;;;;;;;6.30;5.70;;;;;;;;;;5059882;28;20837;-81
2023/09/07 02:40:51;;;;;;;7.53;6.80;;;;;;;;;;5051949;28;20962;-81
2023/09/07 02:43:17;;;;;;;6.93;6.20;;;;;;;;;;5052920;28;20471;-80
2023/09/07 02:45:43;;;;;;;7.10;6.40;;;;;;;;;;5047441;28;20478;-80
2023/09/07 02:48:11;;;;;;;8.43;6.60;;;;;;;;;;5046758;28;20476;-80
2023/09/07 02:50:37;;;;;;;7.90;6.10;;;;;;;;;;5045979;28;20464;-80
2023/09/07 02:53:04;;;;;;;9.00;6.10;;;;;;;;;;5056867;28;20472;-81
2023/09/07 02:55:31;;;;;;;6.77;5.90;;;;;;;;;;5023832;28;21174;-80
2023/09/07 02:57:57;;;;;;;7.77;6.97;;;;;;;;;;5039574;28;20467;-80
2023/09/07 03:00:24;;;;;;;7.23;6.53;;;;;;;;;;5032371;28;20472;-80
2023/09/07 03:02:51;;;;;;;7.00;6.40;;;;;;;;;;5031277;28;20485;-80
2023/09/07 03:05:19;;;;;;;8.30;7.47;;;;;;;;;;5014710;28;20458;-80
2023/09/07 03:07:45;;;;;;;7.60;6.90;;;;;;;;;;5029675;28;20466;-80
2023/09/07 03:10:12;;;;;;;7.20;6.43;;;;;;;;;;5015894;28;20987;-80
2023/09/07 03:12:38;;;;;;;9.13;7.10;;;;;;;;;;5039792;28;20468;-80
2023/09/07 03:15:06;;;;;;;7.80;7.20;;;;;;;;;;5047077;28;20467;-80
2023/09/07 03:17:32;;;;;;;7.20;6.50;;;;;;;;;;5026129;28;20476;-80
2023/09/07 03:19:59;;;;;;;8.93;8.03;;;;;;;;;;5050137;28;21109;-80
2023/09/07 03:22:28;;;;;;;8.67;6.57;;;;;;;;;;5048259;28;20474;-81
2023/09/07 03:24:54;;;;;;;8.43;7.63;;;;;;;;;;5032364;28;20475;-80
2023/09/07 03:27:21;;;;;;;7.83;6.77;;;;;;;;;;5048317;28;20974;-81
2023/09/07 03:29:51;;;;;;;8.37;7.30;;;;;;;;;;5047611;28;21000;-80
2023/09/07 03:32:17;;;;;;;7.30;6.60;;;;;;;;;;5029955;28;20481;-80
2023/09/07 03:34:44;;;;;;;7.50;6.80;;;;;;;;;;5040218;28;20482;-80
2023/09/07 03:37:11;;;;;;;7.80;7.10;;;;;;;;;;5045198;28;20989;-80
2023/09/07 03:39:39;;;;;;;19.60;7.10;;;;;;;;;;5040158;28;20843;-81
2023/09/07 03:42:05;;;;;;;8.30;7.40;;;;;;;;;;5030018;28;20490;-80
2023/09/07 03:44:32;;;;;;;8.37;7.57;;;;;;;;;;5037789;28;20471;-80
2023/09/07 03:46:58;;;;;;;9.07;8.23;;;;;;;;;;5046170;28;20848;-80
2023/09/07 03:49:25;;;;;;;9.67;7.20;;;;;;;;;;5046527;28;20471;-80
2023/09/07 03:51:51;;;;;;;7.93;6.80;;;;;;;;;;5041766;28;20493;-80
2023/09/07 03:54:17;;;;;;;7.67;6.97;;;;;;;;;;5050501;28;20474;-80
2023/09/07 03:56:45;;;;;;;10.20;7.53;;;;;;;;;;5038969;28;20476;-80
2023/09/07 03:59:12;;;;;;;7.87;7.07;;;;;;;;;;5049400;28;20466;-80
2023/09/07 04:01:38;;;;;;;10.90;7.27;;;;;;;;;;5044740;28;20527;-80
2023/09/07 04:04:05;;;;;;;8.07;7.37;;;;;;;;;;5029873;28;20467;-80
2023/09/07 04:06:31;;;;;;;8.00;7.20;;;;;;;;;;5052404;28;20477;-80
2023/09/07 04:08:57;;;;;;;8.07;6.93;;;;;;;;;;5049106;28;20495;-81
2023/09/07 04:11:24;;;;;;;8.30;7.50;;;;;;;;;;5060753;28;20472;-80
2023/09/07 04:13:51;;;;;;;9.13;8.10;;;;;;;;;;5050479;28;20461;-80
2023/09/07 04:16:18;;;;;;;9.20;8.30;;;;;;;;;;5042685;28;20498;-80
2023/09/07 04:18:45;;;;;;;11.07;8.70;;;;;;;;;;5046107;28;20472;-80
2023/09/07 04:21:11;;;;;;;10.50;8.13;;;;;;;;;;5043451;28;20472;-80
2023/09/07 04:23:38;;;;;;;9.60;8.67;;;;;;;;;;5042666;28;20504;-81
2023/09/07 04:26:07;;;;;;;9.97;9.07;;;;;;;;;;5037330;28;20480;-80
2023/09/07 04:28:33;;;;;;;8.70;7.90;;;;;;;;;;5038766;28;20477;-80
2023/09/07 04:31:01;;;;;;;12.93;9.00;;;;;;;;;;5048659;28;20475;-80
2023/09/07 04:33:30;;;;;;;10.00;8.73;;;;;;;;;;5047517;28;20489;-80
2023/09/07 04:35:56;;;;;;;11.10;8.43;;;;;;;;;;5036889;28;20484;-80
2023/09/07 04:38:23;;;;;;;9.97;9.07;;;;;;;;;;5043118;28;20452;-80
2023/09/07 04:40:49;;;;;;;10.03;9.13;;;;;;;;;;5051091;28;20434;-80
2023/09/07 04:43:16;;;;;;;12.47;10.03;;;;;;;;;;5053376;28;20436;-80
2023/09/07 04:45:46;;;;;;;10.30;9.30;;;;;;;;;;5049672;28;20443;-81
2023/09/07 04:48:14;;;;;;;11.03;9.90;;;;;;;;;;5034649;28;20466;-80
2023/09/07 04:50:41;;;;;;;11.17;9.30;;;;;;;;;;5037816;28;20472;-80
2023/09/07 04:53:07;;;;;;;12.53;9.17;;;;;;;;;;5021017;28;20468;-80
2023/09/07 04:55:37;;;;;;;9.83;8.93;;;;;;;;;;5024911;28;20484;-80
2023/09/07 04:58:04;;;;;;;11.23;10.07;;;;;;;;;;5032564;28;20453;-80
2023/09/07 05:00:30;;;;;;;10.33;9.30;;;;;;;;;;5051224;28;20473;-80
2023/09/07 05:02:56;;;;;;;11.07;10.00;;;;;;;;;;5058036;28;20470;-80
2023/09/07 05:05:24;;;;;;;11.43;10.13;;;;;;;;;;5054303;28;20446;-80
2023/09/07 05:07:51;;;;;;;11.47;10.27;;;;;;;;;;5045076;28;20944;-81
2023/09/07 05:10:17;;;;;;;12.40;10.00;;;;;;;;;;5044930;28;20971;-80
2023/09/07 05:12:44;;;;;;;11.97;10.77;;;;;;;;;;5038107;28;20470;-81
2023/09/07 05:15:11;;;;;;;11.50;10.40;;;;;;;;;;5041364;28;20819;-80
2023/09/07 05:17:38;;;;;;;14.20;9.77;;;;;;;;;;5036425;28;20984;-81
2023/09/07 05:20:04;;;;;;;12.67;10.53;;;;;;;;;;5031251;28;20473;-80
2023/09/07 05:22:36;;;;;;;10.80;9.80;;;;;;;;;;5043320;28;20446;-80
2023/09/07 05:25:03;;;;;;;11.10;10.10;;;;;;;;;;5037728;28;20467;-81
2023/09/07 05:27:29;;;;;;;12.07;10.83;;;;;;;;;;5050218;28;20458;-80
2023/09/07 05:29:56;;;;;;;11.97;10.73;;;;;;;;;;5021058;28;20457;-80
2023/09/07 05:32:22;;;;;;;10.07;9.17;;;;;;;;;;5029226;28;20426;-81
2023/09/07 05:34:48;;;;;;;13.07;11.67;;;;;;;;;;5044945;28;20458;-81
2023/09/07 05:37:15;;;;;;;13.20;11.57;;;;;;;;;;5039363;28;20474;-81
2023/09/07 05:39:43;;;;;;;11.30;10.20;;;;;;;;;;5050504;28;20796;-81
2023/09/07 05:42:10;;;;;;;11.27;10.17;;;;;;;;;;5039287;28;20460;-81
2023/09/07 05:44:37;;;;;;;13.73;10.80;;;;;;;;;;5022015;28;20463;-81
2023/09/07 05:47:03;;;;;;;11.70;10.60;;;;;;;;;;5044724;28;20956;-80
2023/09/07 05:49:30;;;;;;;13.00;10.50;;;;;;;;;;5043814;28;20817;-80
2023/09/07 05:51:56;;;;;;;12.17;10.40;;;;;;;;;;4999549;28;21156;-81
2023/09/07 05:54:24;;;;;;;12.70;11.40;;;;;;;;;;5005039;28;20511;-81
2023/09/07 05:56:52;;;;;;;11.53;10.33;;;;;;;;;;5046271;28;20429;-81
2023/09/07 05:59:19;;;;;;;12.93;11.30;;;;;;;;;;5046105;28;20447;-81
2023/09/07 06:01:46;;;;;;;11.97;10.83;;;;;;;;;;5052748;28;20449;-81
2023/09/07 06:04:12;;;;;;;13.03;11.20;;;;;;;;;;5037216;28;20446;-81
2023/09/07 06:06:38;;;;;;;10.97;9.83;;;;;;;;;;5055360;28;20476;-80
2023/09/07 06:09:06;;;;;;;11.70;10.50;;;;;;;;;;5039692;28;21121;-81
2023/09/07 06:11:34;;;;;;;11.37;10.17;;;;;;;;;;5020385;28;20479;-80
2023/09/07 06:14:02;;;;;;;11.43;10.43;;;;;;;;;;5036503;28;20444;-80
2023/09/07 06:16:29;;;;;;;13.30;11.20;;;;;;;;;;5031964;28;20475;-81
2023/09/07 06:18:55;;;;;;;13.40;10.90;;;;;;;;;;5046822;28;20475;-81
2023/09/07 06:21:23;;;;;;;13.10;11.87;;;;;;;;;;5047678;28;20478;-80
2023/09/07 06:23:51;;;;;;;11.93;10.00;;;;;;;;;;5054740;28;20463;-80
2023/09/07 06:26:19;;;;;;;11.90;10.70;;;;;;;;;;5048222;28;20842;-80
2023/09/07 06:28:45;;;;;;;10.20;9.20;;;;;;;;;;5046936;28;20994;-80
2023/09/07 06:31:13;;;;;;;15.20;11.90;;;;;;;;;;5049947;28;20451;-81
2023/09/07 06:33:39;;;;;;;14.57;11.03;;;;;;;;;;5044556;28;20497;-81
2023/09/07 06:36:07;;;;;;;11.80;10.53;;;;;;;;;;5044086;28;20449;-80
2023/09/07 06:38:33;;;;;;;12.20;10.80;;;;;;;;;;5042968;28;20479;-81
2023/09/07 06:41:00;;;;;;;11.83;10.70;;;;;;;;;;5058716;28;20838;-80
2023/09/07 06:43:26;;;;;;;12.90;11.70;;;;;;;;;;5028423;28;20484;-80
2023/09/07 06:45:53;;;;;;;11.60;10.40;;;;;;;;;;5025332;28;20508;-80
2023/09/07 06:48:20;;;;;;;11.63;10.37;;;;;;;;;;5047480;28;20459;-80
2023/09/07 06:50:48;;;;;;;12.40;9.77;;;;;;;;;;5047233;28;20476;-80
2023/09/07 06:53:15;;;;;;;13.20;10.50;;;;;;;;;;5040896;28;20972;-80
2023/09/07 06:55:41;;;;;;;12.00;10.70;;;;;;;;;;5051771;28;20495;-80
2023/09/07 06:58:08;;;;;;;10.47;9.47;;;;;;;;;;5042028;28;20495;-80
2023/09/07 07:00:34;;;;;;;11.50;10.30;;;;;;;;;;5048682;28;20475;-81
2023/09/07 07:03:01;;;;;;;10.83;9.70;;;;;;;;;;5054835;28;20463;-81
2023/09/07 07:05:29;;;;;;;10.77;9.67;;;;;;;;;;5053517;28;20555;-80
2023/09/07 07:07:55;;;;;;;10.97;10.00;;;;;;;;;;5023693;28;20998;-80
2023/09/07 07:10:22;;;;;;;9.80;8.90;;;;;;;;;;5039260;28;20464;-80
2023/09/07 07:12:48;;;;;;;10.43;9.20;;;;;;;;;;5036654;28;20474;-80
2023/09/07 07:15:15;;;;;;;11.70;10.00;;;;;;;;;;5036461;28;21172;-81
2023/09/07 07:17:41;;;;;;;9.93;8.97;;;;;;;;;;5046945;28;20475;-80
2023/09/07 07:20:10;;;;;;;10.27;9.27;;;;;;;;;;5029534;28;20536;-80
2023/09/07 07:22:37;;;;;;;9.80;8.90;;;;;;;;;;5042750;28;20467;-81
2023/09/07 07:25:05;;;;;;;10.70;9.73;;;;;;;;;;5036627;28;20477;-80
2023/09/07 07:27:31;;;;;;;11.10;8.37;;;;;;;;;;5055473;28;20488;-80
2023/09/07 07:29:58;;;;;;;10.43;8.77;;;;;;;;;;5044811;28;20472;-80
2023/09/07 07:32:24;;;;;;;10.53;9.13;;;;;;;;;;5053292;28;20619;-81
2023/09/07 07:34:51;;;;;;;10.03;8.50;;;;;;;;;;5044618;28;20464;-80
2023/09/07 07:37:17;;;;;;;9.93;8.93;;;;;;;;;;5042368;28;20480;-80
2023/09/07 07:39:45;;;;;;;9.53;8.73;;;;;;;;;;5031780;28;20461;-80
2023/09/07 07:42:12;;;;;;;9.43;8.63;;;;;;;;;;5024731;28;20479;-81
2023/09/07 07:44:38;;;;;;;9.30;7.77;;;;;;;;;;5033427;28;20586;-80
2023/09/07 07:47:04;;;;;;;9.23;7.53;;;;;;;;;;5043310;28;20476;-79
2023/09/07 07:49:32;;;;;;;9.30;8.40;;;;;;;;;;5046682;28;20471;-81
2023/09/07 07:51:58;;;;;;;8.53;7.73;;;;;;;;;;5045329;28;20512;-80
2023/09/07 07:54:25;;;;;;;9.20;8.40;;;;;;;;;;5031594;28;20474;-80
2023/09/07 07:56:53;;;;;;;9.53;8.63;;;;;;;;;;5038696;28;20507;-81
2023/09/07 07:59:19;;;;;;;13.63;7.80;;;;;;;;;;5041747;28;21006;-80
2023/09/07 08:01:46;;;;;;;8.83;8.03;;;;;;;;;;5037148;28;20833;-81
2023/09/07 08:04:12;;;;;;;8.53;7.73;;;;;;;;;;5041115;28;20461;-80
2023/09/07 08:06:39;;;;;;;10.00;8.07;;;;;;;;;;5049752;28;20828;-80
2023/09/07 08:09:06;;;;;;;8.33;7.53;;;;;;;;;;5045624;28;21952;-81
2023/09/07 08:11:33;;;;;;;8.80;7.87;;;;;;;;;;5042825;28;20466;-80
2023/09/07 08:14:01;;;;;;;10.23;8.40;;;;;;;;;;5056970;28;21187;-80
2023/09/07 08:16:28;;;;;;;8.67;7.80;;;;;;;;;;5035033;28;20494;-80
2023/09/07 08:18:54;;;;;;;11.03;7.90;;;;;;;;;;5047707;28;20478;-80
2023/09/07 08:21:21;;;;;;;8.20;7.47;;;;;;;;;;5052473;28;20962;-80
2023/09/07 08:23:47;;;;;;;8.13;7.33;;;;;;;;;;5022178;28;20483;-80
2023/09/07 08:26:14;;;;;;;9.13;8.33;;;;;;;;;;5053008;28;20880;-79
2023/09/07 08:28:41;;;;;;;8.77;7.93;;;;;;;;;;5045148;28;20562;-80
2023/09/07 08:31:10;;;;;;;8.53;7.70;;;;;;;;;;5040266;28;20472;-80
2023/09/07 08:33:40;;;;;;;11.97;8.87;;;;;;;;;;5023279;28;20815;-80
2023/09/07 08:36:09;;;;;;;9.67;8.47;;;;;;;;;;5029801;28;20511;-80
2023/09/07 08:38:35;;;;;;;8.97;7.50;;;;;;;;;;5013818;28;20480;-80
2023/09/07 08:41:05;;;;;;;9.43;8.43;;;;;;;;;;5042400;28;20456;-79
2023/09/07 08:43:33;;;;;;;9.43;8.10;;;;;;;;;;5036203;28;20476;-80
2023/09/07 08:46:05;;;;;;;8.57;7.20;;;;;;;;;;5038531;28;20468;-80
2023/09/07 08:48:33;;;;;;;8.40;7.60;;;;;;;;;;5036242;28;20474;-80
2023/09/07 08:51:00;;;;;;;9.23;8.33;;;;;;;;;;5035877;28;20588;-80
2023/09/07 08:53:28;;;;;;;9.60;7.50;;;;;;;;;;5027260;28;21045;-80
2023/09/07 08:55:54;;;;;;;8.77;7.97;;;;;;;;;;5032177;28;20492;-80
2023/09/07 08:58:20;;;;;;;10.53;8.53;;;;;;;;;;5044717;28;20478;-80
2023/09/07 09:00:47;;;;;;;8.17;7.37;;;;;;;;;;5053419;28;20455;-81
2023/09/07 09:03:13;;;;;;;7.77;7.07;;;;;;;;;;5064978;28;20466;-80
2023/09/07 09:05:42;;;;;;;10.00;8.40;;;;;;;;;;5034175;28;21180;-80
2023/09/07 09:08:08;;;;;;;8.30;7.13;;;;;;;;;;5030130;28;20500;-80
2023/09/07 09:10:35;;;;;;;8.60;7.90;;;;;;;;;;5050617;28;20466;-80
2023/09/07 09:13:02;;;;;;;11.77;9.20;;;;;;;;;;5045041;28;20480;-80
2023/09/07 09:15:29;;;;;;;10.43;8.67;;;;;;;;;;5037662;28;20466;-80
2023/09/07 09:17:57;;;;;;;8.90;8.20;;;;;;;;;;5042812;28;20479;-80
2023/09/07 09:20:26;;;;;;;8.60;7.90;;;;;;;;;;5032221;28;20465;-80
2023/09/07 09:22:56;;;;;;;8.97;8.00;;;;;;;;;;5031028;28;21017;-80
2023/09/07 09:25:22;;;;;;;8.77;7.90;;;;;;;;;;5037801;28;20528;-80
2023/09/07 09:27:49;;;;;;;9.30;8.40;;;;;;;;;;5038272;28;20832;-80
2023/09/07 09:30:16;;;;;;;11.30;7.93;;;;;;;;;;5059284;28;20455;-80
2023/09/07 09:32:43;;;;;;;8.20;7.40;;;;;;;;;;5045723;28;20660;-80
2023/09/07 09:35:09;;;;;;;8.70;6.80;;;;;;;;;;5051717;28;20496;-80
2023/09/07 09:37:43;;;;;;;8.80;8.00;;;;;;;;;;5038678;28;20506;-80
2023/09/07 09:40:12;;;;;;;8.37;7.53;;;;;;;;;;5051752;28;20469;-80
2023/09/07 09:42:39;;;;;;;8.77;7.97;;;;;;;;;;5060240;28;20473;-80
2023/09/07 09:45:06;;;;;;;9.40;8.70;;;;;;;;;;5046644;28;20470;-81
2023/09/07 09:47:33;;;;;;;14.50;9.30;;;;;;;;;;5047010;28;20974;-80
2023/09/07 09:50:02;;;;;;;9.07;8.20;;;;;;;;;;5031113;28;20475;-80
2023/09/07 09:52:30;;;;;;;9.30;8.40;;;;;;;;;;5045669;28;20483;-80
2023/09/07 09:54:57;;;;;;;9.13;8.23;;;;;;;;;;5037870;28;20483;-80
2023/09/07 09:57:25;;;;;;;8.80;7.90;;;;;;;;;;5047990;28;20496;-80
2023/09/07 09:59:52;;;;;;;10.27;7.87;;;;;;;;;;5053487;28;20475;-80
2023/09/07 10:02:18;;;;;;;8.50;7.60;;;;;;;;;;5044833;28;20482;-81
2023/09/07 10:04:45;;;;;;;9.13;8.23;;;;;;;;;;5040559;28;20469;-80
2023/09/07 10:07:11;;;;;;;8.70;8.00;;;;;;;;;;5048015;28;20470;-80
2023/09/07 10:09:39;;;;;;;8.60;7.70;;;;;;;;;;5049797;28;20840;-80
2023/09/07 10:12:08;;;;;;;9.77;8.87;;;;;;;;;;5033635;28;20486;-80
2023/09/07 10:14:42;;;;;;;10.07;8.53;;;;;;;;;;5041983;28;20569;-80
2023/09/07 10:17:09;;;;;;;8.90;7.97;;;;;;;;;;5048248;28;20497;-80
2023/09/07 10:19:38;;;;;;;8.43;7.50;;;;;;;;;;5046469;28;20465;-81
2023/09/07 10:22:04;;;;;;;12.03;8.60;;;;;;;;;;5044065;28;21174;-80
2023/09/07 10:24:35;;;;;;;12.27;8.40;;;;;;;;;;5046297;28;20465;-80
2023/09/07 10:27:03;;;;;;;8.33;7.50;;;;;;;;;;5040125;28;21026;-80
2023/09/07 10:29:29;;;;;;;9.07;8.30;;;;;;;;;;5033278;28;20980;-80
2023/09/07 10:31:57;;;;;;;9.07;8.17;;;;;;;;;;5052418;28;20833;-80
2023/09/07 10:34:34;;;;;;;9.23;8.37;;;;;;;;;;5041964;28;20488;-81
2023/09/07 10:37:01;;;;;;;10.37;9.30;;;;;;;;;;5025812;28;20564;-80
2023/09/07 10:39:29;;;;;;;8.70;7.80;;;;;;;;;;5048565;28;20479;-80
2023/09/07 10:41:56;;;;;;;8.30;7.60;;;;;;;;;;5050109;28;20485;-80
2023/09/07 10:44:26;;;;;;;9.57;8.63;;;;;;;;;;5042886;28;20477;-82
2023/09/07 10:46:52;;;;;;;11.03;9.13;;;;;;;;;;5054927;28;20451;-80
2023/09/07 10:49:20;;;;;;;9.50;8.30;;;;;;;;;;5052557;28;20477;-79
2023/09/07 10:51:47;;;;;;;8.47;7.77;;;;;;;;;;5049562;28;20478;-80
2023/09/07 10:54:15;;;;;;;9.70;8.53;;;;;;;;;;5045757;28;21000;-80
2023/09/07 10:56:41;;;;;;;8.93;8.03;;;;;;;;;;5039109;28;20494;-80
2023/09/07 10:59:09;;;;;;;8.90;7.40;;;;;;;;;;5034225;28;20543;-80
2023/09/07 11:01:35;;;;;;;7.20;6.50;;;;;;;;;;5038752;28;20468;-80
2023/09/07 11:04:04;;;;;;;14.50;7.23;;;;;;;;;;5029625;28;20530;-80
2023/09/07 11:06:32;;;;;;;7.83;7.00;;;;;;;;;;5040490;28;20471;-80
2023/09/07 11:09:01;;;;;;;11.37;8.33;;;;;;;;;;5049569;28;20854;-80
2023/09/07 11:11:27;;;;;;;8.20;7.40;;;;;;;;;;5040106;28;20470;-80
2023/09/07 11:13:54;;;;;;;7.50;6.80;;;;;;;;;;5043800;28;20478;-80
2023/09/07 11:16:20;;;;;;;8.30;7.53;;;;;;;;;;5013275;28;20568;-81
2023/09/07 11:18:48;;;;;;;7.80;7.17;;;;;;;;;;5054387;28;21003;-81
2023/09/07 11:21:15;;;;;;;9.73;7.70;;;;;;;;;;5050479;28;20487;-80
2023/09/07 11:23:44;;;;;;;8.60;7.70;;;;;;;;;;5046129;28;20475;-80
2023/09/07 11:26:11;;;;;;;6.97;6.40;;;;;;;;;;5051250;28;20468;-81
2023/09/07 11:28:38;;;;;;;8.83;7.50;;;;;;;;;;5040836;28;20489;-80
2023/09/07 11:31:04;;;;;;;7.70;7.07;;;;;;;;;;5027354;28;20490;-80
2023/09/07 11:33:35;;;;;;;8.03;7.07;;;;;;;;;;5049561;28;20474;-80
2023/09/07 11:36:02;;;;;;;7.47;6.70;;;;;;;;;;5038754;28;20516;-80
2023/09/07 11:38:30;;;;;;;8.77;7.60;;;;;;;;;;5044512;28;21152;-80
2023/09/07 11:40:58;;;;;;;7.17;6.47;;;;;;;;;;5028591;28;20472;-81
2023/09/07 11:43:24;;;;;;;8.50;6.97;;;;;;;;;;5050125;28;20464;-80
2023/09/07 11:45:51;;;;;;;7.20;6.60;;;;;;;;;;5051623;28;20460;-80
2023/09/07 11:48:17;;;;;;;6.87;6.23;;;;;;;;;;5038857;28;20584;-80
2023/09/07 11:50:44;;;;;;;6.87;6.17;;;;;;;;;;5044960;28;20472;-80
2023/09/07 11:53:12;;;;;;;11.13;7.00;;;;;;;;;;5032282;28;20499;-80
2023/09/07 11:55:39;;;;;;;7.60;6.83;;;;;;;;;;5037662;28;20476;-81
2023/09/07 11:58:07;;;;;;;8.77;6.10;;;;;;;;;;5021565;28;20515;-80
2023/09/07 12:00:33;;;;;;;8.00;6.77;;;;;;;;;;5040873;28;20469;-81
2023/09/07 12:03:00;;;;;;;6.10;5.60;;;;;;;;;;5027664;28;20466;-80
2023/09/07 12:05:26;;;;;;;7.33;5.70;;;;;;;;;;5032176;28;20473;-80
2023/09/07 12:07:53;;;;;;;7.20;6.60;;;;;;;;;;5021839;28;20558;-81
2023/09/07 12:10:19;;;;;;;8.43;6.73;;;;;;;;;;5047720;28;20543;-80
2023/09/07 12:12:46;;;;;;;9.10;6.20;;;;;;;;;;5045350;28;20472;-81
2023/09/07 12:15:14;;;;;;;10.00;7.03;;;;;;;;;;5037531;28;20475;-80
2023/09/07 12:17:40;;;;;;;10.03;6.73;;;;;;;;;;5034266;28;20495;-80
2023/09/07 12:20:10;;;;;;;7.37;6.77;;;;;;;;;;5042606;28;20987;-80
2023/09/07 12:22:37;;;;;;;7.50;6.00;;;;;;;;;;5047346;28;20468;-80
2023/09/07 12:25:06;;;;;;;8.10;7.40;;;;;;;;;;5028030;28;20850;-80
2023/09/07 12:27:32;;;;;;;7.47;6.50;;;;;;;;;;5026003;28;20480;-80
2023/09/07 12:29:59;;;;;;;7.33;6.67;;;;;;;;;;5050053;28;20472;-80
2023/09/07 12:32:26;;;;;;;8.30;6.50;;;;;;;;;;5041944;28;20481;-80
2023/09/07 12:34:54;;;;;;;8.43;5.53;;;;;;;;;;5033888;28;20473;-81
2023/09/07 12:37:23;;;;;;;6.73;6.13;;;;;;;;;;5037050;28;20550;-80
2023/09/07 12:39:49;;;;;;;6.60;5.97;;;;;;;;;;5034091;28;20515;-81
2023/09/07 12:42:17;;;;;;;6.10;5.30;;;;;;;;;;5042924;28;20467;-80
2023/09/07 12:44:44;;;;;;;6.20;5.60;;;;;;;;;;5043517;28;20545;-80
2023/09/07 12:47:10;;;;;;;6.43;5.37;;;;;;;;;;5048831;28;20965;-80
2023/09/07 12:49:38;;;;;;;6.97;6.33;;;;;;;;;;5050032;28;20468;-80
2023/09/07 12:52:08;;;;;;;7.00;5.60;;;;;;;;;;5039825;28;20860;-80
2023/09/07 12:54:35;;;;;;;7.20;5.73;;;;;;;;;;5025085;28;20554;-81
2023/09/07 12:57:01;;;;;;;5.90;5.43;;;;;;;;;;5043995;28;20525;-81
2023/09/07 12:59:29;;;;;;;5.60;5.10;;;;;;;;;;5015897;28;21060;-80
2023/09/07 13:01:56;;;;;;;6.43;5.83;;;;;;;;;;5038155;28;21284;-80
2023/09/07 13:04:23;;;;;;;5.43;5.00;;;;;;;;;;5033725;28;20479;-80
2023/09/07 13:06:51;;;;;;;8.40;5.63;;;;;;;;;;5035135;28;20471;-80
2023/09/07 13:09:18;;;;;;;5.00;4.60;;;;;;;;;;5039720;28;20851;-80
2023/09/07 13:11:45;;;;;;;5.20;4.80;;;;;;;;;;5051988;28;20481;-80
2023/09/07 13:14:11;;;;;;;6.20;5.67;;;;;;;;;;5052567;28;20467;-80
2023/09/07 13:16:37;;;;;;;6.47;5.13;;;;;;;;;;5030974;28;20462;-80
2023/09/07 13:19:05;;;;;;;6.40;5.47;;;;;;;;;;5051705;28;20473;-80
2023/09/07 13:21:31;;;;;;;8.00;5.20;;;;;;;;;;5037722;28;20476;-80
2023/09/07 13:23:59;;;;;;;5.90;5.17;;;;;;;;;;5043316;28;20472;-80
2023/09/07 13:26:26;;;;;;;6.97;5.30;;;;;;;;;;5036623;28;21718;-80
2023/09/07 13:28:52;;;;;;;5.00;4.60;;;;;;;;;;5041449;28;20487;-82
2023/09/07 13:31:19;;;;;;;5.40;4.90;;;;;;;;;;5028027;28;20478;-80
2023/09/07 13:33:45;;;;;;;6.53;5.67;;;;;;;;;;5045355;28;20494;-80
2023/09/07 13:36:13;;;;;;;10.17;5.53;;;;;;;;;;5038357;28;20472;-80
2023/09/07 13:38:41;;;;;;;5.80;4.87;;;;;;;;;;5043206;28;20499;-80
2023/09/07 13:41:09;;;;;;;5.23;4.77;;;;;;;;;;5036045;28;20460;-80
2023/09/07 13:43:35;;;;;;;6.60;4.97;;;;;;;;;;5028716;28;20463;-80
2023/09/07 13:46:02;;;;;;;6.40;5.23;;;;;;;;;;5039426;28;20459;-80
2023/09/07 13:48:29;;;;;;;6.00;5.40;;;;;;;;;;5052336;28;20470;-81
2023/09/07 13:50:56;;;;;;;7.70;5.60;;;;;;;;;;5037865;28;20890;-80
2023/09/07 13:53:23;;;;;;;5.67;5.03;;;;;;;;;;5045587;28;20469;-80
2023/09/07 13:55:50;;;;;;;8.47;5.30;;;;;;;;;;5015661;28;21024;-80
2023/09/07 13:58:19;;;;;;;5.77;5.30;;;;;;;;;;5033109;28;20496;-80
2023/09/07 14:00:46;;;;;;;6.23;5.63;;;;;;;;;;5038481;28;20918;-80
2023/09/07 14:03:13;;;;;;;5.53;5.13;;;;;;;;;;5027007;28;20557;-80
2023/09/07 14:05:39;;;;;;;6.20;5.60;;;;;;;;;;5043390;28;20471;-80
2023/09/07 14:08:06;;;;;;;5.87;5.37;;;;;;;;;;5051463;28;20457;-80
2023/09/07 14:10:32;;;;;;;6.20;5.60;;;;;;;;;;5048932;28;20467;-79
2023/09/07 14:12:59;;;;;;;8.43;5.23;;;;;;;;;;5037411;28;20472;-80
2023/09/07 14:15:27;;;;;;;5.90;5.30;;;;;;;;;;5028715;28;20981;-80
2023/09/07 14:17:54;;;;;;;6.90;5.63;;;;;;;;;;5035316;28;20493;-81
2023/09/07 14:20:20;;;;;;;6.77;6.10;;;;;;;;;;5046655;28;20999;-80
2023/09/07 14:22:46;;;;;;;7.30;5.80;;;;;;;;;;5061055;28;20462;-81
2023/09/07 14:25:16;;;;;;;7.07;6.47;;;;;;;;;;5044184;28;20465;-81
2023/09/07 14:27:42;;;;;;;7.10;6.20;;;;;;;;;;5030626;28;20490;-81
2023/09/07 14:30:10;;;;;;;5.90;5.40;;;;;;;;;;5050669;28;20466;-81
2023/09/07 14:32:38;;;;;;;6.30;5.80;;;;;;;;;;5051394;28;20463;-81
2023/09/07 14:35:05;;;;;;;5.87;5.23;;;;;;;;;;5045215;28;20460;-81
2023/09/07 14:37:31;;;;;;;6.77;6.17;;;;;;;;;;5046410;28;20502;-81